Time;durP1;ratioP1;P1;durP2;ratioP2;P2;SDS_P1;SDS_P2;PMS_P1;PMS_P2;Temp;Humidity;BMP_temperature;BMP_pressure;BME280_temperature;BME280_humidity;BME280_pressure;Samples;Min_cycle;Max_cycle;Signal;HPM_P1;HPM_P2
2022/05/03 00:00:09;;;;;;;14.52;10.15;;;6.00;99.90;;;;;;5032583;28;21525;-79
2022/05/03 00:02:51;;;;;;;13.00;9.95;;;5.00;99.90;;;;;;5031596;28;20042;-79
2022/05/03 00:05:27;;;;;;;12.73;9.10;;;4.90;99.90;;;;;;5031862;28;20037;-79
2022/05/03 00:08:23;;;;;;;11.02;9.43;;;4.90;99.90;;;;;;5024207;28;20574;-79
2022/05/03 00:11:07;;;;;;;11.15;9.60;;;4.90;99.90;;;;;;5014301;28;20083;-79
2022/05/03 00:13:44;;;;;;;13.25;10.52;;;4.90;99.90;;;;;;5029675;28;20044;-79
2022/05/03 00:16:13;;;;;;;13.50;10.68;;;4.90;99.90;;;;;;5053855;28;20047;-89
2022/05/03 00:18:41;;;;;;;11.80;8.85;;;4.80;99.90;;;;;;5028705;28;20426;-89
2022/05/03 00:21:07;;;;;;;14.68;10.18;;;4.80;99.90;;;;;;5030326;28;20048;-89
2022/05/03 00:23:34;;;;;;;13.18;10.18;;;4.80;99.90;;;;;;5024273;28;20050;-88
2022/05/03 00:26:00;;;;;;;13.10;9.77;;;4.80;99.90;;;;;;5013624;28;20037;-89
2022/05/03 00:28:26;;;;;;;13.18;10.30;;;4.80;99.90;;;;;;5057926;28;20440;-88
2022/05/03 00:30:53;;;;;;;13.52;10.65;;;4.80;99.90;;;;;;5025581;28;20076;-89
2022/05/03 00:33:20;;;;;;;11.80;9.95;;;4.70;99.90;;;;;;5010409;28;20040;-85
2022/05/03 00:35:46;;;;;;;12.30;9.57;;;4.70;99.90;;;;;;5065061;28;20045;-85
2022/05/03 00:38:12;;;;;;;13.85;11.05;;;4.70;99.90;;;;;;5041054;28;20052;-85
2022/05/03 00:40:47;;;;;;;13.35;11.07;;;4.70;99.90;;;;;;5026641;28;20152;-85
2022/05/03 00:43:35;;;;;;;14.23;11.07;;;4.70;99.90;;;;;;5060702;28;20414;-85
2022/05/03 00:46:12;;;;;;;13.35;10.88;;;4.70;99.90;;;;;;5040108;28;20452;-85
2022/05/03 00:48:44;;;;;;;14.57;11.38;;;;;;;;;;5040121;28;20103;-79
2022/05/03 00:51:16;;;;;;;14.25;12.20;;;4.60;99.90;;;;;;5026325;28;20041;-79
2022/05/03 00:54:17;;;;;;;19.60;15.90;;;4.70;99.90;;;;;;5030459;28;20037;-79
2022/05/03 00:57:20;;;;;;;18.35;13.75;;;4.70;99.90;;;;;;5052715;28;20060;-79
2022/05/03 01:00:09;;;;;;;15.45;13.35;;;4.80;99.90;;;;;;5029799;28;20131;-79
2022/05/03 01:02:45;;;;;;;19.70;14.77;;;4.80;99.90;;;;;;5025171;28;20041;-79
2022/05/03 01:05:15;;;;;;;14.32;12.48;;;4.60;99.90;;;;;;5031673;28;20572;-80
2022/05/03 01:08:04;;;;;;;17.63;14.10;;;4.80;99.90;;;;;;5031501;28;20126;-80
2022/05/03 01:10:53;;;;;;;17.40;14.50;;;4.70;99.90;;;;;;5025423;28;20052;-80
2022/05/03 01:13:29;;;;;;;16.27;13.07;;;4.70;99.90;;;;;;5028499;28;20041;-80
2022/05/03 01:16:04;;;;;;;17.38;13.20;;;4.60;99.90;;;;;;5024220;28;20073;-80
2022/05/03 01:19:00;;;;;;;18.13;13.55;;;4.60;99.90;;;;;;5024881;28;22107;-80
2022/05/03 01:21:38;;;;;;;17.05;12.55;;;4.70;99.90;;;;;;5019027;28;20489;-80
2022/05/03 01:24:39;;;;;;;17.02;12.52;;;4.60;99.90;;;;;;5042212;28;20068;-85
2022/05/03 01:27:44;;;;;;;15.93;12.52;;;4.60;99.90;;;;;;4969208;28;20146;-85
2022/05/03 01:30:11;;;;;;;17.58;13.32;;;4.50;99.90;;;;;;4993548;28;20052;-85
2022/05/03 01:32:42;;;;;;;15.48;12.20;;;4.50;99.90;;;;;;5047949;28;20049;-85
2022/05/03 01:35:09;;;;;;;14.30;12.30;;;4.50;99.90;;;;;;5030310;28;20383;-85
2022/05/03 01:38:02;;;;;;;16.52;12.80;;;4.50;99.90;;;;;;5036639;28;20488;-85
2022/05/03 01:40:43;;;;;;;14.38;12.35;;;4.50;99.90;;;;;;5026653;28;20394;-89
2022/05/03 01:43:54;;;;;;;15.10;11.88;;;4.50;99.90;;;;;;5070102;28;20037;-89
2022/05/03 01:46:24;;;;;;;16.30;12.30;;;;;;;;;;5035887;28;20577;-89
2022/05/03 01:52:22;;;;;;;14.90;12.60;;;3.80;99.90;;;;;;5041833;28;20068;-89
2022/05/03 01:55:12;;;;;;;17.20;13.30;;;4.30;99.90;;;;;;5042508;28;20045;-89
2022/05/03 01:57:57;;;;;;;15.75;12.80;;;;;;;;;;5030051;28;20442;-89
2022/05/03 02:00:23;;;;;;;14.48;11.82;;;4.30;99.90;;;;;;5040353;28;20037;-89
2022/05/03 02:03:11;;;;;;;15.85;12.93;;;4.20;99.90;;;;;;5022873;28;20147;-89
2022/05/03 02:05:58;;;;;;;17.60;13.35;;;4.20;99.90;;;;;;5040546;28;20388;-89
2022/05/03 02:08:30;;;;;;;12.68;10.52;;;4.20;99.90;;;;;;5026347;28;20052;-89
2022/05/03 02:10:56;;;;;;;15.55;13.00;;;;;;;;;;5040260;28;20037;-89
2022/05/03 02:14:43;;;;;;;18.55;14.48;;;3.40;99.90;;;;;;5032857;28;20201;-79
2022/05/03 02:16:39;;;;;;;20.45;15.25;;;4.10;99.90;;;;;;5026778;28;20056;-79
2022/05/03 02:19:22;;;;;;;18.58;14.57;;;4.10;99.90;;;;;;5060100;28;20033;-79
2022/05/03 02:22:36;;;;;;;19.38;14.77;;;4.20;99.90;;;;;;5032974;28;20056;-79
2022/05/03 02:25:21;;;;;;;18.15;14.93;;;4.40;99.90;;;;;;5034372;28;20440;-78
2022/05/03 02:27:48;;;;;;;21.67;15.40;;;;;;;;;;5030312;28;21947;-79
2022/05/03 02:30:16;;;;;;;18.17;14.65;;;;;;;;;;5040994;28;20073;-88
2022/05/03 02:33:05;;;;;;;20.33;15.13;;;4.80;99.90;;;;;;5048790;28;20064;-89
2022/05/03 02:35:35;;;;;;;18.58;15.07;;;4.90;99.90;;;;;;5044810;28;20037;-89
2022/05/03 02:38:06;;;;;;;18.85;15.02;;;5.20;99.90;;;;;;5025778;28;20044;-89
2022/05/03 02:40:33;;;;;;;19.83;15.70;;;5.50;99.90;;;;;;5031273;28;20570;-89
2022/05/03 02:43:00;;;;;;;20.10;15.13;;;5.10;99.90;;;;;;5028635;28;20179;-87
2022/05/03 02:45:29;;;;;;;17.75;14.35;;;5.40;99.90;;;;;;5046853;28;21494;-79
2022/05/03 02:48:01;;;;;;;21.92;15.68;;;5.40;99.90;;;;;;5062058;28;20426;-79
2022/05/03 02:50:49;;;;;;;18.23;14.45;;;5.50;99.90;;;;;;5029193;28;20056;-79
2022/05/03 02:53:20;;;;;;;18.20;14.82;;;6.10;99.90;;;;;;5007435;28;20133;-79
2022/05/03 02:56:07;;;;;;;17.73;15.15;;;5.80;99.90;;;;;;5045400;28;20174;-79
2022/05/03 02:58:55;;;;;;;19.38;14.70;;;5.90;99.90;;;;;;5038920;28;20491;-79
2022/05/03 03:01:47;;;;;;;19.65;15.48;;;6.00;99.90;;;;;;5031887;28;20077;-79
2022/05/03 03:04:40;;;;;;;21.73;16.10;;;6.20;99.90;;;;;;5027181;28;20568;-85
2022/05/03 03:07:07;;;;;;;19.17;15.50;;;;;;;;;;5041644;28;21515;-86
2022/05/03 03:09:43;;;;;;;20.20;16.23;;;6.60;99.90;;;;;;5029173;28;20115;-85
2022/05/03 03:12:32;;;;;;;18.75;16.08;;;;;;;;;;5046937;28;20494;-85
2022/05/03 03:15:09;;;;;;;18.25;15.55;;;6.70;99.90;;;;;;5032890;28;20402;-85
2022/05/03 03:17:40;;;;;;;18.00;14.63;;;6.70;99.90;;;;;;5042491;28;20044;-85
2022/05/03 03:20:10;;;;;;;20.33;16.80;;;7.40;99.90;;;;;;5036047;28;20037;-80
2022/05/03 03:22:41;;;;;;;21.33;16.10;;;6.90;99.90;;;;;;5031167;28;20037;-80
2022/05/03 03:25:09;;;;;;;19.25;16.13;;;7.00;99.90;;;;;;5029927;28;20045;-80
2022/05/03 03:27:36;;;;;;;20.77;16.42;;;7.00;99.90;;;;;;5010831;28;20475;-80
2022/05/03 03:30:06;;;;;;;22.58;17.23;;;7.10;99.90;;;;;;5041759;28;20037;-81
2022/05/03 03:32:33;;;;;;;22.63;17.80;;;7.20;99.90;;;;;;5032445;28;20038;-80
2022/05/03 03:34:59;;;;;;;20.80;17.15;;;7.30;99.90;;;;;;5026402;28;20033;-80
2022/05/03 03:37:28;;;;;;;20.77;16.98;;;7.30;99.90;;;;;;5027033;28;20044;-85
2022/05/03 03:39:54;;;;;;;21.15;16.83;;;7.40;99.90;;;;;;5062409;28;20036;-85
2022/05/03 03:42:20;;;;;;;21.10;16.65;;;7.70;99.90;;;;;;5040966;28;20273;-85
2022/05/03 03:44:47;;;;;;;22.15;16.80;;;7.40;99.90;;;;;;5028446;28;20074;-85
2022/05/03 03:47:15;;;;;;;20.10;17.08;;;7.90;99.90;;;;;;5028637;28;20031;-85
2022/05/03 03:49:41;;;;;;;21.42;17.08;;;7.50;99.90;;;;;;5044675;28;20515;-86
2022/05/03 03:52:08;;;;;;;22.42;18.45;;;7.60;99.90;;;;;;5040421;28;20041;-79
2022/05/03 03:54:35;;;;;;;25.13;18.40;;;7.60;99.90;;;;;;5030258;28;20513;-79
2022/05/03 03:57:04;;;;;;;22.35;17.33;;;7.70;99.90;;;;;;5059346;28;20056;-79
2022/05/03 03:59:31;;;;;;;19.33;16.92;;;7.70;99.90;;;;;;5034448;28;20432;-79
2022/05/03 04:01:58;;;;;;;21.42;17.33;;;7.70;99.90;;;;;;5029540;28;20045;-79
2022/05/03 04:04:29;;;;;;;21.13;16.92;;;7.90;99.90;;;;;;5030573;28;20039;-79
2022/05/03 04:06:55;;;;;;;21.33;17.10;;;7.80;99.90;;;;;;5022021;28;20041;-79
2022/05/03 04:09:20;;;;;;;21.55;17.13;;;7.70;99.90;;;;;;5041833;28;20064;-79
2022/05/03 04:11:47;;;;;;;21.60;16.48;;;7.90;99.90;;;;;;5016095;28;21134;-79
2022/05/03 04:14:14;;;;;;;21.75;17.65;;;7.80;99.90;;;;;;4999498;28;20961;-79
2022/05/03 04:16:40;;;;;;;20.70;16.77;;;7.80;99.90;;;;;;5044400;28;20048;-79
2022/05/03 04:19:07;;;;;;;23.45;17.52;;;9.20;99.90;;;;;;5022973;28;20146;-79
2022/05/03 04:21:33;;;;;;;22.77;18.33;;;8.70;99.90;;;;;;5059838;28;20498;-79
2022/05/03 04:23:59;;;;;;;22.10;17.38;;;7.90;99.90;;;;;;5014692;28;20037;-79
2022/05/03 04:26:25;;;;;;;23.50;18.02;;;7.90;99.90;;;;;;5022627;28;20029;-80
2022/05/03 04:28:59;;;;;;;21.98;18.08;;;7.90;99.90;;;;;;5026180;28;20038;-81
2022/05/03 04:31:26;;;;;;;22.02;18.08;;;8.00;99.90;;;;;;5042074;28;20041;-80
2022/05/03 04:33:52;;;;;;;20.83;16.85;;;7.90;99.90;;;;;;5025879;28;20065;-81
2022/05/03 04:36:18;;;;;;;24.25;17.55;;;8.00;99.90;;;;;;5035538;28;20314;-80
2022/05/03 04:38:44;;;;;;;21.83;17.95;;;8.00;99.90;;;;;;5030207;28;20843;-81
2022/05/03 04:41:09;;;;;;;20.52;17.83;;;8.10;99.90;;;;;;5022880;28;20037;-81
2022/05/03 04:43:35;;;;;;;25.17;19.13;;;8.00;99.90;;;;;;5018328;28;20033;-81
2022/05/03 04:46:01;;;;;;;23.05;17.65;;;8.80;99.90;;;;;;5029552;28;20115;-80
2022/05/03 04:48:28;;;;;;;27.65;18.95;;;8.10;99.90;;;;;;5024505;28;20049;-81
2022/05/03 04:50:53;;;;;;;23.63;17.70;;;8.10;99.90;;;;;;5027559;28;20590;-80
2022/05/03 04:53:19;;;;;;;24.50;18.33;;;8.20;99.90;;;;;;5011208;28;20045;-81
2022/05/03 04:55:45;;;;;;;24.55;18.77;;;8.20;99.90;;;;;;5025852;28;20079;-80
2022/05/03 04:58:10;;;;;;;24.42;18.80;;;8.30;99.90;;;;;;5023881;28;20150;-80
2022/05/03 05:00:36;;;;;;;26.55;19.35;;;8.30;99.90;;;;;;5041891;28;20041;-86
2022/05/03 05:03:02;;;;;;;28.20;17.88;;;8.40;99.90;;;;;;5048286;28;20036;-86
2022/05/03 05:05:28;;;;;;;23.20;17.67;;;8.40;99.90;;;;;;5020310;28;20505;-86
2022/05/03 05:07:54;;;;;;;24.42;18.63;;;;;;;;;;5008170;28;20052;-86
2022/05/03 05:10:26;;;;;;;24.50;18.30;;;8.50;99.90;;;;;;5051981;28;20036;-86
2022/05/03 05:12:54;;;;;;;24.05;18.55;;;8.50;99.90;;;;;;5040299;28;20053;-86
2022/05/03 05:15:22;;;;;;;23.50;19.05;;;8.60;99.90;;;;;;5043526;28;20069;-90
2022/05/03 05:17:47;;;;;;;24.83;18.60;;;8.70;99.90;;;;;;5037752;28;20045;-90
2022/05/03 05:20:13;;;;;;;27.85;19.27;;;8.70;99.90;;;;;;5023285;28;20061;-90
2022/05/03 05:22:39;;;;;;;25.50;19.63;;;8.80;99.90;;;;;;5033987;28;20041;-89
2022/05/03 05:25:05;;;;;;;27.00;20.52;;;8.90;99.90;;;;;;5010648;28;20037;-89
2022/05/03 05:27:31;;;;;;;27.15;20.83;;;8.90;99.90;;;;;;5039403;28;20064;-90
2022/05/03 05:29:56;;;;;;;30.92;21.88;;;9.00;99.90;;;;;;5024907;28;20072;-90
2022/05/03 05:32:22;;;;;;;34.70;23.10;;;9.00;99.90;;;;;;5022133;28;20045;-81
2022/05/03 05:34:48;;;;;;;32.35;23.63;;;9.10;99.90;;;;;;5037986;28;20525;-80
2022/05/03 05:37:13;;;;;;;29.42;22.58;;;9.10;99.90;;;;;;5039811;28;20460;-81
2022/05/03 05:39:39;;;;;;;31.67;22.88;;;9.50;99.90;;;;;;5028026;28;20051;-81
2022/05/03 05:42:05;;;;;;;32.35;22.35;;;9.20;99.90;;;;;;5003714;28;20040;-80
2022/05/03 05:44:31;;;;;;;31.52;23.48;;;9.20;99.90;;;;;;5029748;28;20037;-80
2022/05/03 05:46:56;;;;;;;30.23;23.33;;;9.20;99.90;;;;;;5024216;28;20049;-80
2022/05/03 05:49:22;;;;;;;34.25;23.58;;;9.20;99.90;;;;;;5026851;28;20057;-86
2022/05/03 05:51:48;;;;;;;32.58;23.52;;;9.20;99.90;;;;;;5041841;28;20128;-86
2022/05/03 05:54:17;;;;;;;32.22;22.85;;;9.20;99.90;;;;;;5004563;28;20114;-86
2022/05/03 05:56:44;;;;;;;35.75;23.45;;;9.20;99.90;;;;;;5037175;28;20037;-86
2022/05/03 05:59:10;;;;;;;32.53;22.60;;;9.20;99.90;;;;;;5037083;28;20044;-86
2022/05/03 06:01:40;;;;;;;36.75;24.70;;;9.30;99.90;;;;;;5010717;28;20964;-86
2022/05/03 06:04:07;;;;;;;39.67;24.88;;;9.30;99.90;;;;;;5062952;28;20037;-86
2022/05/03 06:06:35;;;;;;;38.22;24.52;;;9.40;99.90;;;;;;5032710;28;20087;-79
2022/05/03 06:09:04;;;;;;;37.08;23.67;;;9.40;99.90;;;;;;5031450;28;20045;-80
2022/05/03 06:11:30;;;;;;;36.55;24.23;;;9.40;99.90;;;;;;5042877;28;20091;-80
2022/05/03 06:13:56;;;;;;;39.33;24.67;;;9.50;99.90;;;;;;5040946;28;20041;-80
2022/05/03 06:16:22;;;;;;;34.80;23.95;;;9.60;99.90;;;;;;5034148;28;20045;-79
2022/05/03 06:18:47;;;;;;;35.42;23.13;;;9.60;99.90;;;;;;5043045;28;20040;-79
2022/05/03 06:21:13;;;;;;;35.03;22.55;;;9.70;99.90;;;;;;5011933;28;20072;-79
2022/05/03 06:23:40;;;;;;;30.60;21.83;;;9.70;99.90;;;;;;5042931;28;20037;-89
2022/05/03 06:26:07;;;;;;;30.88;20.92;;;8.80;99.90;;;;;;5031807;28;20041;-89
2022/05/03 06:28:33;;;;;;;29.95;19.98;;;9.90;99.90;;;;;;5046248;28;20036;-89
2022/05/03 06:30:59;;;;;;;26.92;19.02;;;9.80;99.90;;;;;;5027967;28;20040;-89
2022/05/03 06:33:24;;;;;;;28.30;19.48;;;9.90;99.90;;;;;;5050324;28;20478;-90
2022/05/03 06:35:50;;;;;;;26.77;18.45;;;9.90;99.90;;;;;;5034969;28;20041;-90
2022/05/03 06:38:16;;;;;;;25.17;18.00;;;9.90;99.90;;;;;;5055116;28;20045;-91
2022/05/03 06:40:42;;;;;;;26.25;16.58;;;9.90;99.90;;;;;;5049999;28;20044;-90
2022/05/03 06:43:10;;;;;;;29.38;16.50;;;9.90;99.90;;;;;;5048177;28;21751;-90
2022/05/03 06:45:36;;;;;;;28.98;16.17;;;9.90;99.90;;;;;;5045660;28;20039;-90
2022/05/03 06:48:02;;;;;;;23.38;14.43;;;9.90;99.90;;;;;;5026886;28;20037;-91
2022/05/03 06:50:31;;;;;;;25.70;12.93;;;9.90;99.90;;;;;;5068558;28;20041;-90
2022/05/03 06:52:57;;;;;;;13.90;8.43;;;10.00;99.90;;;;;;5028030;28;20081;-90
2022/05/03 06:55:23;;;;;;;19.20;8.40;;;9.90;99.90;;;;;;5042581;28;20120;-81
2022/05/03 06:57:49;;;;;;;21.80;7.35;;;9.90;99.90;;;;;;5058611;28;20045;-80
2022/05/03 07:00:15;;;;;;;17.35;7.93;;;9.90;99.90;;;;;;5035650;28;20139;-80
2022/05/03 07:02:44;;;;;;;21.05;7.28;;;9.90;99.90;;;;;;5017223;28;20494;-80
2022/05/03 07:05:10;;;;;;;18.67;6.97;;;9.90;99.90;;;;;;5024338;28;20396;-81
2022/05/03 07:07:36;;;;;;;18.17;6.57;;;9.90;99.90;;;;;;5057536;28;20052;-80
2022/05/03 07:10:03;;;;;;;17.88;6.60;;;9.90;99.90;;;;;;5032905;28;20474;-80
2022/05/03 07:12:29;;;;;;;16.80;6.60;;;9.90;99.90;;;;;;5047806;28;20131;-85
2022/05/03 07:15:04;;;;;;;18.02;6.03;;;9.80;99.90;;;;;;5053430;28;20044;-85
2022/05/03 07:22:59;;;;;;;27.35;7.65;;;10.00;99.90;;;;;;5040688;28;20041;-86
2022/05/03 07:25:26;;;;;;;22.50;7.40;;;10.10;99.90;;;;;;5037349;28;20400;-85
2022/05/03 07:27:51;;;;;;;19.23;6.90;;;10.20;99.90;;;;;;5029823;28;20136;-85
2022/05/03 07:30:18;;;;;;;24.30;7.72;;;10.30;99.90;;;;;;5032641;28;20455;-80
2022/05/03 07:32:45;;;;;;;23.30;6.85;;;10.40;99.90;;;;;;5036070;28;20398;-80
2022/05/03 07:35:12;;;;;;;27.70;7.40;;;10.50;99.90;;;;;;5045800;28;20068;-81
2022/05/03 07:37:38;;;;;;;21.77;6.72;;;10.60;99.90;;;;;;5059782;28;20053;-81
2022/05/03 07:40:09;;;;;;;19.60;6.90;;;10.90;99.90;;;;;;5035476;28;20052;-81
2022/05/03 07:42:34;;;;;;;19.90;6.20;;;10.90;99.90;;;;;;5045113;28;20045;-81
2022/05/03 07:45:01;;;;;;;17.52;6.47;;;11.10;99.90;;;;;;5014658;28;20391;-88
2022/05/03 07:47:27;;;;;;;20.73;5.60;;;11.40;99.90;;;;;;5060461;28;20037;-89
2022/05/03 07:49:53;;;;;;;18.77;5.35;;;11.40;99.90;;;;;;5018974;28;20106;-90
2022/05/03 07:52:19;;;;;;;18.80;5.55;;;11.40;99.90;;;;;;5029962;28;20079;-89
2022/05/03 07:54:45;;;;;;;14.77;5.53;;;11.40;99.90;;;;;;5060575;28;20041;-89
2022/05/03 07:57:12;;;;;;;17.13;6.03;;;11.90;99.90;;;;;;5042996;28;20033;-88
2022/05/03 07:59:38;;;;;;;17.17;5.55;;;11.40;99.90;;;;;;5045181;28;20049;-89
2022/05/03 08:02:04;;;;;;;17.77;5.15;;;11.30;99.90;;;;;;5058218;28;20069;-82
2022/05/03 08:04:30;;;;;;;24.00;5.97;;;11.10;99.90;;;;;;5016457;28;20135;-81
2022/05/03 08:06:56;;;;;;;20.00;5.72;;;11.20;99.90;;;;;;5027675;28;20033;-81
2022/05/03 08:09:22;;;;;;;19.38;5.82;;;11.20;99.90;;;;;;5017257;28;20487;-82
2022/05/03 08:11:47;;;;;;;18.48;4.82;;;11.20;99.90;;;;;;5017991;28;20466;-81
2022/05/03 08:14:13;;;;;;;22.85;5.25;;;11.30;99.90;;;;;;5018075;28;21271;-81
2022/05/03 08:16:39;;;;;;;18.70;5.63;;;11.30;99.90;;;;;;5014207;28;21177;-81
2022/05/03 08:19:05;;;;;;;18.00;5.20;;;11.30;99.90;;;;;;5040021;28;20396;-88
2022/05/03 08:21:35;;;;;;;15.30;4.60;;;11.40;99.90;;;;;;5036598;28;20852;-89
2022/05/03 08:24:01;;;;;;;18.80;4.60;;;11.50;99.90;;;;;;5025156;28;20044;-88
2022/05/03 08:26:27;;;;;;;20.83;4.57;;;11.60;99.90;;;;;;5049346;28;20103;-89
2022/05/03 08:28:53;;;;;;;14.00;4.30;;;11.70;99.90;;;;;;5009974;28;20038;-88
2022/05/03 08:31:19;;;;;;;20.33;4.47;;;11.70;99.90;;;;;;5033229;28;20044;-89
2022/05/03 08:33:45;;;;;;;15.40;4.50;;;11.60;99.90;;;;;;5051668;28;20045;-88
2022/05/03 08:36:11;;;;;;;15.25;4.60;;;11.50;99.90;;;;;;5036235;28;20049;-88
2022/05/03 08:44:05;;;;;;;17.25;4.10;;;11.40;99.90;;;;;;5042163;28;20041;-90
2022/05/03 08:46:32;;;;;;;15.32;4.00;;;11.60;99.90;;;;;;5022008;28;20029;-90
2022/05/03 08:49:02;;;;;;;16.15;4.25;;;11.60;99.90;;;;;;5044484;28;20063;-88
2022/05/03 08:51:29;;;;;;;18.30;3.70;;;11.80;99.90;;;;;;5026520;28;20509;-89
2022/05/03 08:53:55;;;;;;;15.10;3.97;;;11.80;99.90;;;;;;5073302;28;20044;-89
2022/05/03 08:56:22;;;;;;;14.65;3.53;;;12.00;99.90;;;;;;5051798;28;20086;-89
2022/05/03 08:58:48;;;;;;;20.05;3.72;;;12.00;99.90;;;;;;5040931;28;20132;-89
2022/05/03 09:01:15;;;;;;;10.90;3.25;;;12.10;99.90;;;;;;5053711;28;20123;-89
2022/05/03 09:03:41;;;;;;;11.27;3.50;;;12.30;99.90;;;;;;5037943;28;20102;-91
2022/05/03 09:06:07;;;;;;;15.15;3.65;;;12.40;99.90;;;;;;5036554;28;20123;-89
2022/05/03 09:08:34;;;;;;;10.40;3.28;;;12.60;99.90;;;;;;5035150;28;20036;-90
2022/05/03 09:11:15;;;;;;;10.85;3.28;;;12.70;99.90;;;;;;5041861;28;20479;-90
2022/05/03 09:13:42;;;;;;;12.15;3.70;;;13.00;99.90;;;;;;5040969;28;20044;-89
2022/05/03 09:16:16;;;;;;;13.27;3.00;;;13.10;99.90;;;;;;5027740;28;20099;-89
2022/05/03 09:18:44;;;;;;;9.85;2.83;;;13.20;99.90;;;;;;5049310;22;20052;-89
2022/05/03 09:24:07;;;;;;;13.18;3.20;;;13.40;99.90;;;;;;5027225;28;21325;-89
2022/05/03 09:26:33;;;;;;;12.63;3.47;;;13.60;99.90;;;;;;5040593;28;20049;-81
2022/05/03 09:29:07;;;;;;;12.57;3.20;;;13.80;99.90;;;;;;5000112;28;20546;-81
2022/05/03 09:31:41;;;;;;;10.95;3.40;;;14.00;99.90;;;;;;5019213;28;20037;-82
2022/05/03 09:34:25;;;;;;;7.88;3.00;;;14.20;99.90;;;;;;5058889;28;20049;-81
2022/05/03 09:36:59;;;;;;;10.82;3.00;;;14.40;99.90;;;;;;5056377;28;20037;-82
2022/05/03 09:39:36;;;;;;;13.45;3.47;;;14.60;99.90;;;;;;5062840;28;20101;-81
2022/05/03 09:42:13;;;;;;;12.32;2.90;;;14.80;99.90;;;;;;5038557;28;20052;-81
2022/05/03 09:45:00;;;;;;;15.52;3.20;;;15.00;99.90;;;;;;5036468;28;20076;-81
2022/05/03 09:47:29;;;;;;;11.07;3.22;;;15.10;99.90;;;;;;5037251;28;20080;-81
2022/05/03 09:49:55;;;;;;;10.43;3.33;;;15.00;99.90;;;;;;5020325;28;20522;-82
2022/05/03 09:52:32;;;;;;;13.15;3.20;;;14.90;99.90;;;;;;5033230;28;20170;-81
2022/05/03 09:55:07;;;;;;;12.77;3.08;;;14.90;99.90;;;;;;5063449;28;20037;-82
2022/05/03 09:57:34;;;;;;;9.10;2.67;;;15.00;99.90;;;;;;5065270;28;20037;-82
2022/05/03 10:00:01;;;;;;;11.55;2.95;;;15.00;99.90;;;;;;5047533;28;20044;-81
2022/05/03 10:02:29;;;;;;;8.23;3.00;;;15.00;99.90;;;;;;5018140;28;20537;-81
2022/05/03 10:04:56;;;;;;;8.48;2.72;;;15.00;99.90;;;;;;5031629;28;20510;-81
2022/05/03 10:07:22;;;;;;;9.95;3.00;;;15.10;99.90;;;;;;5027926;28;20048;-81
2022/05/03 10:09:49;;;;;;;10.23;2.70;;;15.00;99.90;;;;;;5036095;28;20048;-81
2022/05/03 10:12:16;;;;;;;11.73;3.08;;;14.90;99.90;;;;;;5021884;28;20051;-81
2022/05/03 10:14:44;;;;;;;10.38;3.05;;;15.00;99.90;;;;;;5033215;28;20321;-81
2022/05/03 10:20:42;;;;;;;10.23;2.50;;;14.70;99.90;;;;;;5028491;28;20053;-82
2022/05/03 10:23:28;;;;;;;9.40;2.80;;;14.70;99.90;;;;;;5047470;28;20041;-82
2022/05/03 10:26:11;;;;;;;10.27;2.70;;;14.70;99.90;;;;;;5026076;28;20391;-82
2022/05/03 10:29:05;;;;;;;11.00;2.95;;;14.80;99.90;;;;;;5051776;28;20394;-82
2022/05/03 10:31:31;;;;;;;11.40;3.08;;;14.90;99.90;;;;;;5041052;28;20045;-82
2022/05/03 10:34:02;;;;;;;11.20;2.88;;;14.90;99.90;;;;;;5032310;28;20045;-86
2022/05/03 10:36:34;;;;;;;8.45;2.65;;;14.90;99.90;;;;;;5012444;28;20079;-86
2022/05/03 10:39:26;;;;;;;8.88;2.78;;;15.10;99.90;;;;;;5057684;28;20045;-86
2022/05/03 10:42:10;;;;;;;7.97;2.53;;;15.40;99.20;;;;;;5028667;28;20125;-85
2022/05/03 10:45:07;;;;;;;10.30;2.45;;;15.80;99.90;;;;;;5039940;28;20400;-85
2022/05/03 10:47:41;;;;;;;8.68;2.60;;;15.80;98.80;;;;;;5072483;28;20075;-86
2022/05/03 10:50:13;;;;;;;7.95;2.55;;;15.80;99.50;;;;;;5027841;28;20121;-89
2022/05/03 10:52:42;;;;;;;8.82;2.42;;;15.80;98.70;;;;;;5031747;28;20037;-88
2022/05/03 10:55:09;;;;;;;10.57;2.75;;;15.70;98.60;;;;;;5028390;28;20119;-87
2022/05/03 10:58:12;;;;;;;11.10;3.00;;;15.80;98.60;;;;;;5003746;28;20070;-89
2022/05/03 11:01:00;;;;;;;9.55;2.70;;;15.90;96.50;;;;;;5024088;28;20502;-87
2022/05/03 11:03:26;;;;;;;6.82;2.30;;;16.20;97.30;;;;;;5021300;28;20044;-88
2022/05/03 11:06:20;;;;;;;7.65;2.53;;;16.40;96.90;;;;;;5041562;28;20392;-82
2022/05/03 11:11:53;;;;;;;6.63;2.35;;;16.80;95.90;;;;;;5044284;28;20072;-82
2022/05/03 11:14:21;;;;;;;7.65;2.60;;;17.40;95.10;;;;;;5012547;28;20052;-83
2022/05/03 11:16:53;;;;;;;8.48;2.40;;;18.20;94.60;;;;;;5025290;28;20060;-82
2022/05/03 11:19:21;;;;;;;8.02;2.13;;;18.40;89.30;;;;;;5040619;28;20061;-82
2022/05/03 11:21:49;;;;;;;8.40;2.40;;;18.40;91.00;;;;;;5021248;28;20047;-86
2022/05/03 11:24:20;;;;;;;9.13;2.53;;;18.30;91.00;;;;;;5028229;28;20052;-85
2022/05/03 11:26:47;;;;;;;8.82;2.50;;;18.30;89.90;;;;;;5057607;28;20510;-87
2022/05/03 11:29:14;;;;;;;9.35;2.40;;;18.50;90.20;;;;;;5020753;28;20033;-86
2022/05/03 11:31:46;;;;;;;6.38;2.20;;;18.60;88.50;;;;;;5031443;28;20044;-86
2022/05/03 11:34:12;;;;;;;9.85;2.95;;;17.80;79.40;;;;;;5028199;28;20128;-87
2022/05/03 11:36:38;;;;;;;16.40;3.00;;;17.90;85.60;;;;;;5042597;28;20090;-86
2022/05/03 11:39:03;;;;;;;7.80;2.15;;;18.00;86.10;;;;;;5019401;28;20060;-90
2022/05/03 11:41:30;;;;;;;8.45;2.58;;;18.10;86.80;;;;;;5050809;28;20549;-90
2022/05/03 11:43:56;;;;;;;9.02;2.40;;;18.70;86.40;;;;;;5021316;28;20057;-90
2022/05/03 11:46:23;;;;;;;11.45;2.42;;;19.20;83.40;;;;;;5003753;28;21199;-89
2022/05/03 11:48:54;;;;;;;6.38;2.25;;;19.20;82.10;;;;;;5057493;28;20558;-89
2022/05/03 11:57:05;;;;;;;9.23;2.17;;;18.90;82.20;;;;;;5032299;28;20162;-85
2022/05/03 11:59:32;;;;;;;7.03;2.17;;;19.30;75.40;;;;;;5047079;28;20073;-86
2022/05/03 12:02:36;;;;;;;7.88;2.35;;;19.50;78.80;;;;;;5019546;28;20076;-86
2022/05/03 12:05:06;;;;;;;7.63;2.08;;;20.30;76.60;;;;;;5057876;28;20044;-87
2022/05/03 12:07:46;;;;;;;6.47;2.60;;;20.80;76.60;;;;;;5069543;28;20037;-86
2022/05/03 12:10:19;;;;;;;7.90;2.35;;;20.60;74.90;;;;;;5044156;28;20041;-86
2022/05/03 12:13:06;;;;;;;6.15;2.40;;;20.10;75.30;;;;;;5024426;28;20135;-86
2022/05/03 12:15:36;;;;;;;6.07;2.08;;;19.80;76.10;;;;;;5040075;28;20081;-85
2022/05/03 12:18:16;;;;;;;7.72;2.42;;;18.70;75.50;;;;;;5040361;28;20037;-86
2022/05/03 12:20:43;;;;;;;7.75;2.30;;;18.70;76.00;;;;;;5068294;28;20061;-86
2022/05/03 12:23:38;;;;;;;7.75;2.15;;;18.50;76.80;;;;;;5041760;28;20380;-85
2022/05/03 12:26:28;;;;;;;9.32;2.58;;;18.50;76.30;;;;;;5034803;28;21649;-85
2022/05/03 12:28:59;;;;;;;6.03;2.25;;;18.80;75.60;;;;;;5025558;28;20091;-81
2022/05/03 12:31:35;;;;;;;7.07;2.28;;;19.20;75.80;;;;;;5013580;28;20702;-81
2022/05/03 12:34:02;;;;;;;8.45;2.28;;;19.30;75.00;;;;;;5026682;28;20041;-81
2022/05/03 12:36:29;;;;;;;6.57;2.42;;;19.40;76.30;;;;;;5027819;28;20068;-81
2022/05/03 12:38:55;;;;;;;6.30;2.00;;;18.80;75.80;;;;;;5019736;28;20034;-81
2022/05/03 12:41:25;;;;;;;7.40;2.25;;;19.30;77.40;;;;;;5033855;28;20054;-81
2022/05/03 12:44:05;;;;;;;8.95;2.70;;;19.00;74.20;;;;;;5044253;28;20487;-81
2022/05/03 12:46:32;;;;;;;8.70;2.47;;;19.30;75.30;;;;;;5038882;28;20509;-86
2022/05/03 12:49:00;;;;;;;7.05;2.33;;;19.50;75.50;;;;;;5025919;28;20037;-86
2022/05/03 12:51:26;;;;;;;5.95;2.10;;;19.60;73.90;;;;;;5028422;28;20506;-86
2022/05/03 12:53:52;;;;;;;6.55;2.30;;;19.80;74.30;;;;;;5039974;28;20033;-86
2022/05/03 12:59:03;;;;;;;8.05;2.42;;;19.90;70.90;;;;;;5027686;28;20052;-86
2022/05/03 13:01:29;;;;;;;8.02;2.50;;;20.20;72.40;;;;;;5027466;28;20452;-86
2022/05/03 13:03:56;;;;;;;7.35;2.30;;;20.50;71.90;;;;;;5023239;28;20037;-89
2022/05/03 13:06:22;;;;;;;7.20;2.42;;;20.70;71.00;;;;;;5040799;28;20471;-89
2022/05/03 13:08:49;;;;;;;7.30;2.40;;;20.70;69.50;;;;;;5039063;28;20041;-89
2022/05/03 13:11:15;;;;;;;7.13;2.58;;;20.40;69.20;;;;;;5013794;28;20095;-90
2022/05/03 13:13:42;;;;;;;6.45;2.50;;;20.20;68.40;;;;;;5040117;28;20080;-89
2022/05/03 13:16:08;;;;;;;8.48;2.90;;;19.50;68.90;;;;;;5012636;28;20139;-89
2022/05/03 13:18:34;;;;;;;7.95;2.42;;;19.20;69.90;;;;;;5024457;28;20061;-82
2022/05/03 13:21:01;;;;;;;8.13;2.60;;;19.30;69.70;;;;;;5023030;28;20531;-82
2022/05/03 13:23:26;;;;;;;7.20;2.47;;;19.40;71.10;;;;;;5017540;28;20102;-82
2022/05/03 13:25:53;;;;;;;7.60;2.42;;;19.30;71.40;;;;;;5027515;28;20501;-82
2022/05/03 13:28:19;;;;;;;6.55;2.40;;;19.20;70.30;;;;;;5022309;28;20201;-82
2022/05/03 13:30:45;;;;;;;6.28;2.47;;;19.20;70.40;;;;;;5037755;28;20130;-82
2022/05/03 13:33:11;;;;;;;8.55;2.63;;;19.00;69.30;;;;;;5025751;28;20041;-84
2022/05/03 13:41:06;;;;;;;8.85;2.30;;;19.30;72.60;;;;;;5025490;28;20053;-81